FAMM/MBD METAR and TAF weather

Enter ICAO airport designator
Station Type Date Time Source
FAMM METAR 2018/04/27 00:00 UTC NOAA

FAMM 270000Z AUTO 04005KT //// // ////// 13/07 Q1022


Station Type Date Time Source
FAMM Decoded METAR 2018/04/27 00:00 UTC NOAA

Mafikeng Intl. Ad, South Africa (FAMM) 25-47S 025-32E 1300M
Apr 26, 2018 - 08:00 PM EDT / 2018.04.27 0000 UTC
Wind: from the NE (040 degrees) at 6 MPH (5 KT):0
Temperature: 55 F (13 C)
Dew Point: 44 F (7 C)
Relative Humidity: 66%
Pressure (altimeter): 30.18 in. Hg (1022 hPa)
ob: FAMM 270000Z AUTO 04005KT //// // ////// 13/07 Q1022
cycle: 0

Station Type Date Time Source
FAMM TAF 2018/02/25 04:00 UTC NOAA

TAF FAMM 250300Z 2504/2515 VRB02KT CAVOK
BECMG 2509/2511 22006KT SCT035 TX34/2512Z TN20/2504Z


Example: see airport list